createdAt,value
2023-05-02T00:02:20.967Z,5.82
2023-05-02T00:07:24.483Z,5.20
2023-05-02T00:12:27.808Z,5.90
2023-05-02T00:17:33.224Z,5.97
2023-05-02T00:22:36.887Z,5.72
2023-05-02T00:27:40.492Z,5.85
2023-05-02T00:32:45.852Z,5.30
2023-05-02T00:37:49.195Z,6.03
2023-05-02T00:42:52.870Z,5.57
2023-05-02T00:47:57.914Z,5.55
2023-05-02T00:53:02.902Z,6.28
2023-05-02T00:58:10.282Z,6.03
2023-05-02T01:03:27.352Z,5.85
2023-05-02T01:08:38.946Z,5.80
2023-05-02T01:13:46.117Z,5.63
2023-05-02T01:18:53.027Z,5.10
2023-05-02T01:24:06.754Z,5.05
2023-05-02T01:29:15.775Z,4.97
2023-05-02T01:34:22.016Z,4.95
2023-05-02T01:39:27.532Z,6.05
2023-05-02T01:44:34.535Z,5.75
2023-05-02T01:49:39.585Z,6.22
2023-05-02T01:54:45.922Z,5.95
2023-05-02T01:59:52.292Z,5.05
2023-05-02T02:04:57.760Z,4.68
2023-05-02T02:10:02.546Z,5.45
2023-05-02T02:15:15.198Z,4.72
2023-05-02T02:20:20.313Z,5.40
2023-05-02T02:25:24.706Z,5.18
2023-05-02T02:30:29.659Z,6.03
2023-05-02T02:35:39.760Z,5.07
2023-05-02T02:40:47.068Z,5.57
2023-05-02T02:46:02.166Z,5.40
2023-05-02T02:51:13.407Z,5.27
2023-05-02T02:56:21.495Z,4.72
2023-05-02T03:01:28.469Z,4.93
2023-05-02T03:06:32.907Z,5.60
2023-05-02T03:16:43.267Z,5.03
2023-05-02T03:21:51.503Z,5.82
2023-05-02T03:26:59.520Z,4.95
2023-05-02T03:32:11.007Z,4.90
2023-05-02T03:37:16.365Z,5.00
2023-05-02T03:42:20.247Z,4.63
2023-05-02T03:47:25.525Z,4.20
2023-05-02T03:52:29.600Z,5.32
2023-05-02T03:57:33.610Z,4.63
2023-05-02T04:02:39.169Z,4.70
2023-05-02T04:07:47.168Z,4.35
2023-05-02T04:12:50.990Z,5.35
2023-05-02T04:17:59.036Z,4.35
2023-05-02T04:23:02.831Z,3.70
2023-05-02T04:28:07.768Z,4.70
2023-05-02T04:33:13.750Z,4.72
2023-05-02T04:38:18.138Z,4.88
2023-05-02T04:43:24.558Z,4.10
2023-05-02T04:48:35.129Z,3.65
2023-05-02T04:53:39.273Z,3.72
2023-05-02T04:58:43.106Z,3.83
2023-05-02T05:08:55.053Z,3.47
2023-05-02T05:13:58.627Z,3.70
2023-05-02T05:19:05.761Z,3.45
2023-05-02T05:24:09.492Z,4.38
2023-05-02T05:29:13.123Z,4.13
2023-05-02T05:44:32.206Z,3.28
2023-05-02T05:49:38.961Z,3.58
2023-05-02T05:54:45.226Z,3.38
2023-05-02T05:59:48.885Z,3.80
2023-05-02T06:04:54.853Z,4.63
2023-05-02T06:10:01.559Z,4.15
2023-05-02T06:15:08.912Z,3.78
2023-05-02T06:20:15.669Z,3.60
2023-05-02T06:25:20.863Z,5.00
2023-05-02T06:30:24.392Z,3.67
2023-05-02T06:35:29.352Z,2.97
2023-05-02T06:40:33.146Z,3.30
2023-05-02T06:45:36.826Z,3.38
2023-05-02T06:50:41.962Z,3.45
2023-05-02T06:55:46.538Z,4.00
2023-05-02T07:00:50.545Z,3.40
2023-05-02T07:05:55.603Z,3.75
2023-05-02T07:10:59.160Z,4.00
2023-05-02T07:16:02.433Z,3.60
2023-05-02T07:21:07.798Z,3.83
2023-05-02T07:26:11.780Z,5.80
2023-05-02T07:31:16.987Z,3.90
2023-05-02T07:36:23.286Z,4.07
2023-05-02T07:41:26.869Z,4.90
2023-05-02T07:46:30.537Z,4.65
2023-05-02T07:51:37.127Z,5.75
2023-05-02T07:56:40.894Z,6.57
2023-05-02T08:01:45.323Z,6.30
2023-05-02T08:06:50.863Z,9.55
2023-05-02T08:11:54.570Z,12.45
2023-05-02T08:16:58.146Z,13.95
2023-05-02T08:22:03.282Z,15.55
2023-05-02T08:27:07.132Z,14.70
2023-05-02T08:32:10.898Z,15.35
2023-05-02T08:37:15.939Z,15.13
2023-05-02T08:42:21.030Z,16.80
2023-05-02T08:47:25.147Z,16.23
2023-05-02T08:52:30.999Z,17.45
2023-05-02T09:02:48.648Z,18.83
2023-05-02T09:07:53.593Z,19.27
2023-05-02T09:12:57.345Z,16.23
2023-05-02T09:18:01.033Z,15.75
2023-05-02T09:23:06.322Z,15.32
2023-05-02T09:28:09.910Z,14.52
2023-05-02T09:33:13.962Z,14.90
2023-05-02T09:38:21.971Z,14.98
2023-05-02T09:43:25.529Z,14.23
2023-05-02T09:48:30.493Z,15.90
2023-05-02T09:53:45.934Z,15.25
2023-05-02T09:58:50.059Z,12.88
2023-05-02T10:03:54.577Z,14.20
2023-05-02T10:09:00.822Z,15.02
2023-05-02T10:14:05.821Z,13.57
2023-05-02T10:19:10.809Z,12.10
2023-05-02T10:24:17.299Z,10.38
2023-05-02T10:29:22.119Z,10.23
2023-05-02T10:34:26.272Z,9.55
2023-05-02T10:39:31.973Z,9.25
2023-05-02T10:44:36.807Z,9.43
2023-05-02T10:49:51.764Z,9.40
2023-05-02T10:55:15.907Z,8.43
2023-05-02T11:00:27.144Z,8.50
2023-05-02T11:05:31.223Z,7.40
2023-05-02T11:10:36.339Z,8.93
2023-05-02T11:15:58.745Z,8.25
2023-05-02T11:21:28.006Z,6.97
2023-05-02T11:26:33.299Z,7.75
2023-05-02T11:31:56.464Z,6.47
2023-05-02T11:37:00.140Z,5.38
2023-05-02T11:42:05.421Z,3.33
2023-05-02T11:47:10.521Z,3.88
2023-05-02T11:52:14.243Z,5.50
2023-05-02T11:57:19.360Z,6.88
2023-05-02T12:02:37.717Z,6.03
2023-05-02T12:07:45.430Z,5.53
2023-05-02T12:12:51.396Z,6.60
2023-05-02T12:17:55.181Z,7.07
2023-05-02T12:22:59.182Z,7.07
2023-05-02T12:28:04.842Z,6.50
2023-05-02T12:38:14.256Z,6.35
2023-05-02T12:43:20.305Z,5.80
2023-05-02T12:48:26.782Z,6.13
2023-05-02T12:53:41.388Z,5.80
2023-05-02T12:58:48.163Z,5.57
2023-05-02T13:03:52.611Z,4.47
2023-05-02T13:08:56.400Z,3.83
2023-05-02T13:14:03.569Z,4.20
2023-05-02T13:19:07.360Z,3.10
2023-05-02T13:24:11.335Z,3.97
2023-05-02T13:29:16.336Z,3.72
2023-05-02T13:34:20.237Z,4.00
2023-05-02T13:39:23.592Z,4.88
2023-05-02T13:44:28.546Z,4.55
2023-05-02T13:49:32.232Z,4.05
2023-05-02T13:54:35.848Z,4.85
2023-05-02T13:59:40.989Z,4.05
2023-05-02T14:04:44.610Z,5.13
2023-05-02T14:09:48.256Z,4.38
2023-05-02T14:14:53.437Z,4.68
2023-05-02T14:19:57.231Z,4.40
2023-05-02T14:25:01.402Z,4.50
2023-05-02T14:30:07.750Z,3.85
2023-05-02T14:35:11.810Z,4.00
2023-05-02T14:40:16.275Z,3.30
2023-05-02T14:45:21.875Z,3.35
2023-05-02T14:50:25.843Z,3.30
2023-05-02T14:55:29.558Z,4.07
2023-05-02T15:00:35.321Z,3.92
2023-05-02T15:05:39.223Z,3.92
2023-05-02T15:10:42.969Z,3.70
2023-05-02T15:15:49.628Z,3.47
2023-05-02T15:20:53.279Z,4.65
2023-05-02T15:25:57.081Z,4.00
2023-05-02T15:31:01.997Z,3.78
2023-05-02T15:36:06.123Z,3.33
2023-05-02T15:41:10.374Z,3.25
2023-05-02T15:46:15.584Z,2.75
2023-05-02T15:51:19.499Z,3.33
2023-05-02T15:56:23.689Z,2.70
2023-05-02T16:01:28.800Z,2.60
2023-05-02T16:06:32.826Z,2.22
2023-05-02T16:11:36.789Z,2.28
2023-05-02T16:16:41.519Z,2.30
2023-05-02T16:21:44.773Z,2.33
2023-05-02T16:26:48.413Z,3.15
2023-05-02T16:31:53.514Z,2.75
2023-05-02T16:36:57.580Z,2.80
2023-05-02T16:42:02.285Z,3.42
2023-05-02T16:47:09.125Z,2.63
2023-05-02T16:52:13.456Z,3.38
2023-05-02T16:57:19.998Z,2.63
2023-05-02T17:02:24.961Z,2.35
2023-05-02T17:07:28.795Z,3.53
2023-05-02T17:12:32.548Z,2.63
2023-05-02T17:17:37.687Z,2.60
2023-05-02T17:22:41.656Z,2.50
2023-05-02T17:27:45.288Z,3.08
2023-05-02T17:32:50.242Z,2.55
2023-05-02T17:37:53.799Z,2.95
2023-05-02T17:42:59.355Z,3.03
2023-05-02T17:53:08.167Z,3.45
2023-05-02T17:58:11.721Z,3.53
2023-05-02T18:03:17.183Z,3.05
2023-05-02T18:13:24.438Z,3.05
2023-05-02T18:18:29.534Z,3.25
2023-05-02T18:23:33.146Z,3.65
2023-05-02T18:28:37.271Z,3.50
2023-05-02T18:33:42.715Z,29.13
2023-05-02T18:38:45.965Z,3.60
2023-05-02T18:43:50.832Z,4.03
2023-05-02T18:48:55.870Z,4.60
2023-05-02T18:53:59.436Z,3.80
2023-05-02T18:59:03.155Z,3.65
2023-05-02T19:04:08.643Z,4.15
2023-05-02T19:14:17.751Z,3.50
2023-05-02T19:19:22.688Z,4.05
2023-05-02T19:24:26.826Z,5.87
2023-05-02T19:29:30.375Z,4.20
2023-05-02T19:34:36.961Z,3.85
2023-05-02T19:39:40.530Z,4.00
2023-05-02T19:44:44.078Z,3.67
2023-05-02T19:51:58.796Z,4.53
2023-05-02T19:57:02.806Z,5.32
2023-05-02T20:02:06.938Z,3.80
2023-05-02T20:07:11.988Z,4.15
2023-05-02T20:12:15.535Z,4.45
2023-05-02T20:17:19.204Z,4.50
2023-05-02T20:22:24.824Z,6.55
2023-05-02T20:32:32.205Z,4.28
2023-05-02T20:37:37.261Z,5.07
2023-05-02T20:42:42.498Z,3.78
2023-05-02T20:47:47.404Z,3.78
2023-05-02T20:52:52.316Z,3.43
2023-05-02T20:57:56.195Z,3.10
2023-05-02T21:03:00.081Z,3.47
2023-05-02T21:08:05.189Z,3.88
2023-05-02T21:13:08.720Z,2.75
2023-05-02T21:18:12.366Z,2.65
2023-05-02T21:23:17.470Z,2.72
2023-05-02T21:28:21.301Z,2.45
2023-05-02T21:33:25.130Z,2.63
2023-05-02T21:38:30.849Z,2.00
2023-05-02T21:43:36.826Z,2.33
2023-05-02T21:48:40.724Z,2.80
2023-05-02T21:53:45.696Z,2.72
2023-05-02T21:58:51.597Z,2.05
2023-05-02T22:03:55.830Z,2.28
2023-05-02T22:09:00.753Z,2.17
2023-05-02T22:14:04.403Z,2.03
2023-05-02T22:19:08.477Z,2.08
2023-05-02T22:24:13.398Z,1.85
2023-05-02T22:29:17.021Z,2.20
2023-05-02T22:34:20.635Z,2.47
2023-05-02T22:39:25.625Z,1.88
2023-05-02T22:44:29.425Z,1.57
2023-05-02T22:49:33.583Z,1.92
2023-05-02T22:54:38.280Z,2.35
2023-05-02T22:59:42.053Z,1.90
2023-05-02T23:04:45.810Z,2.08
2023-05-02T23:09:50.944Z,2.53
2023-05-02T23:14:54.938Z,1.88
2023-05-02T23:19:59.215Z,1.80
2023-05-02T23:25:04.219Z,1.88
2023-05-02T23:30:09.451Z,3.42
2023-05-02T23:35:13.900Z,1.80
2023-05-02T23:40:19.150Z,2.75
2023-05-02T23:45:23.208Z,2.83
2023-05-02T23:50:26.888Z,2.53
2023-05-02T23:55:32.120Z,1.88
